Bloomington, Wisconsin
Current Conditions -  °F | °C
As of 3:55 PM on Friday 24 Oct 2014 (Local Time) from KPDC Reporting Station
Overcast Overcast  
Wind Chill: 62°   Ceiling: 2100
Heat Index: 62°   Visibility: 7mi
Dew Point: 54°   Wind: 10mph
Humidity: 76%   Direction: 210°SSW
Pressure: 29.9"   Gusts: 16mph
Location:  42.89°N, 90.92°W
Report Text: KPDC 242055Z AUTO 21009G14KT 7SM OVC021 17/12 A2990 RMK AO2 T01660124
Loading
Personal Weather Stations






























Interactive Weather Map
Tropical Storm Tracking
New forecast layout! Learn more

10-Day Weather Forecast

Advertisements
Track Severe Weather on mobile